Route Details

Aircraft Information
Group: European Fleet
Types: A30F, A31F, B738
Route Data
Distance: 956nm
Duration: 2h 25m
Origin METAR: LMML 171115Z VRB04KT CAVOK 37/24 Q1013 NOSIG
Dest. METAR: EDDK 171120Z AUTO 26005KT 200V330 CAVOK 25/15 Q1011 NOSIG
Freight Data
(for Aug 18, 2022)
Load Factor:
32%
Manifested Cargo: 27,182lbs
Financial History
Total Freight: 274,259lbs
Average Load: 0lbs/flt
Fuel Used: 152,270lbs
Avg. Fuel Used: 0lbs/flt
Fuel Expense: $65,233
Avg. Fuel Expense: $0
Avg. Fuel Cost: $0/lbs
Total Gross Income: $572,262
Pilot Pay: $1,204
Total Expenses: $92,322
Total Revenue: $410,211
Average Revenue: $0

Capitol Logistics 571




LMML
Malta International Airport
Malta, MT
EDDK
Cologne Bonn Airport
Cologne, DE